Главная страница
METAR-TAF:

METAR-TAF

Аэропорты :

Эсбьерг, Дания

широта: 55-32N, долгота: 008-34E, высота над уровнем моря: 30 м

Текущие метеонаблюдения

Эта сводка был подготовлена 49 минут назад, в 21:20 UTC
Ветер 7 Узел от северо-северо-восточный, изменяющийся между северный и восточно-северо-восточный
Температура 16°C
Влажность 94%
Давление 1009 hPa
Видимость 10 км и более
дождь,

METAR: EKEB 122120Z AUTO 03007KT 360V060 9999 RA BKN052/// 16/15 Q1009

Время: 00:09 (22:09 UTC)

Прогноз

Эта сводка был подготовлена 7 часа и 44 минут назад, в 14:25 UTC
Прогноз действительный с 12-го 15 UTC до 12-го 21 UTC
Ветер 10 Узел от восточно-северо-восточный
Видимость 10 км и более
Отдельные облака на высоте 2500 фута
временами
С 12-го 20 UTC до 12-го 21 UTC
Ветер 15 Узел от восточно-северо-восточный с порывами до 25 Узел
Видимость: 3000 м
Рассеянная облачность на высоте 5000 фута, Кучево-дождевые.
ливневые дожди,

TAF: EKEB 121425Z 1215/1221 06010KT 9999 SCT025 TEMPO 1220/1221 06015G25KT 3000 SHRA BKN050CB

Метеонаблюдения и прогнозы для более 4000 аэропортов (сводки METAR и TAF).

Имеющиеся станции представлены на карте желтыми и красными точками.

Чтобы увидеть название станции, наведите на нее мышь.

Затем щелкните, чтобы увидеть метеонаблюдения и метеопрогнозы.

Управление картой: чтобы увеличить масштаб, щелкните зеленые кнопки с черным крестиком; чтобы уменьшить масштаб, щелкните зеленую кнопку с тире; для просмотра соседних карт щелкайте зеленые стрелки.


METAR-TAF: